createdAt,value
2017-12-09T00:00:11.626Z,64.20
2017-12-09T00:05:13.112Z,63.20
2017-12-09T00:10:14.562Z,63.20
2017-12-09T00:15:16.054Z,63.20
2017-12-09T00:20:17.498Z,63.30
2017-12-09T00:25:19.710Z,63.40
2017-12-09T00:30:21.193Z,63.40
2017-12-09T00:35:22.653Z,64.00
2017-12-09T00:40:24.850Z,64.20
2017-12-09T00:45:26.297Z,64.20
2017-12-09T00:50:27.730Z,64.40
2017-12-09T00:55:29.170Z,64.50
2017-12-09T01:00:30.629Z,64.70
2017-12-09T01:05:32.841Z,64.70
2017-12-09T01:10:34.297Z,64.70
2017-12-09T01:15:48.842Z,64.80
2017-12-09T01:20:50.313Z,64.70
2017-12-09T01:25:51.845Z,64.90
2017-12-09T01:30:53.302Z,64.90
2017-12-09T01:35:54.786Z,64.40
2017-12-09T01:40:56.993Z,64.80
2017-12-09T01:45:58.469Z,64.80
2017-12-09T01:50:59.985Z,64.50
2017-12-09T01:56:01.546Z,64.50
2017-12-09T02:01:03.793Z,64.40
2017-12-09T02:06:05.301Z,64.30
2017-12-09T02:11:06.865Z,64.60
2017-12-09T02:16:08.385Z,64.40
2017-12-09T02:21:09.894Z,64.70
2017-12-09T02:26:11.405Z,64.60
2017-12-09T02:31:12.926Z,64.50
2017-12-09T02:36:14.444Z,64.30
2017-12-09T02:41:15.954Z,64.40
2017-12-09T02:46:17.477Z,63.90
2017-12-09T02:51:18.998Z,63.90
2017-12-09T02:56:20.510Z,63.60
2017-12-09T03:01:22.025Z,63.20
2017-12-09T03:06:23.540Z,63.50
2017-12-09T03:11:25.062Z,63.00
2017-12-09T03:16:26.612Z,62.60
2017-12-09T03:21:28.857Z,63.10
2017-12-09T03:26:31.105Z,62.80
2017-12-09T03:31:32.611Z,62.80
2017-12-09T03:36:34.134Z,62.90
2017-12-09T03:41:35.651Z,62.80
2017-12-09T03:46:37.144Z,62.70
2017-12-09T03:51:39.414Z,63.40
2017-12-09T03:56:40.917Z,62.80
2017-12-09T04:01:42.429Z,63.10
2017-12-09T04:06:43.929Z,63.00
2017-12-09T04:11:46.166Z,62.90
2017-12-09T04:16:48.473Z,62.90
2017-12-09T04:21:49.982Z,62.80
2017-12-09T04:26:51.470Z,62.60
2017-12-09T04:31:52.989Z,62.60
2017-12-09T04:36:54.505Z,62.60
2017-12-09T04:41:56.006Z,62.70
2017-12-09T04:46:57.525Z,63.00
2017-12-09T04:51:59.029Z,63.20
2017-12-09T04:57:00.534Z,62.80
2017-12-09T05:02:02.782Z,63.20
2017-12-09T05:07:04.289Z,62.80
2017-12-09T05:12:05.786Z,62.50
2017-12-09T05:17:07.314Z,62.60
2017-12-09T05:22:08.809Z,62.90
2017-12-09T05:27:11.086Z,63.20
2017-12-09T05:32:12.618Z,63.20
2017-12-09T05:37:14.105Z,63.80
2017-12-09T05:42:16.379Z,63.40
2017-12-09T05:47:17.900Z,63.30
2017-12-09T05:52:19.421Z,63.70
2017-12-09T05:57:20.941Z,63.50
2017-12-09T06:02:22.453Z,63.40
2017-12-09T06:07:23.946Z,63.30
2017-12-09T06:12:25.457Z,63.80
2017-12-09T06:17:26.989Z,64.20
2017-12-09T06:22:28.476Z,64.30
2017-12-09T06:27:29.965Z,64.60
2017-12-09T06:32:31.494Z,64.30
2017-12-09T06:37:33.761Z,64.60
2017-12-09T06:42:35.281Z,64.50
2017-12-09T06:47:36.790Z,64.80
2017-12-09T06:52:38.297Z,65.20
2017-12-09T06:57:39.820Z,65.30
2017-12-09T07:02:41.345Z,65.30
2017-12-09T07:07:42.857Z,66.00
2017-12-09T07:12:44.446Z,65.50
2017-12-09T07:17:45.985Z,65.50
2017-12-09T07:22:47.571Z,65.50
2017-12-09T07:27:49.802Z,65.50
2017-12-09T07:32:52.066Z,65.70
2017-12-09T07:37:53.573Z,65.80
2017-12-09T07:42:55.125Z,65.40
2017-12-09T07:47:56.614Z,65.40
2017-12-09T07:52:58.145Z,65.30
2017-12-09T07:57:59.641Z,65.60
2017-12-09T08:03:01.154Z,66.10
2017-12-09T08:08:02.714Z,66.40
2017-12-09T08:13:04.222Z,66.90
2017-12-09T08:18:05.775Z,67.20
2017-12-09T08:23:07.332Z,67.30
2017-12-09T08:28:08.845Z,67.50
2017-12-09T08:33:10.357Z,67.70
2017-12-09T08:38:11.866Z,67.60
2017-12-09T08:43:13.389Z,68.00
2017-12-09T08:48:14.901Z,68.40
2017-12-09T08:53:16.426Z,68.50
2017-12-09T08:58:17.946Z,68.40
2017-12-09T09:03:19.449Z,68.40
2017-12-09T09:08:20.974Z,68.60
2017-12-09T09:13:22.486Z,68.60
2017-12-09T09:18:24.042Z,69.40
2017-12-09T09:23:25.549Z,68.30
2017-12-09T09:28:27.030Z,68.50
2017-12-09T09:33:28.576Z,68.40
2017-12-09T09:38:30.862Z,68.30
2017-12-09T09:43:33.106Z,68.30
2017-12-09T09:48:34.597Z,68.30
2017-12-09T09:53:36.116Z,69.10
2017-12-09T09:58:37.613Z,69.00
2017-12-09T10:03:39.134Z,68.70
2017-12-09T10:08:40.640Z,68.60
2017-12-09T10:13:42.164Z,68.30
2017-12-09T10:18:43.702Z,68.00
2017-12-09T10:23:45.219Z,68.10
2017-12-09T10:28:46.762Z,67.40
2017-12-09T10:33:48.300Z,68.10
2017-12-09T10:38:49.777Z,67.30
2017-12-09T10:43:51.265Z,67.30
2017-12-09T10:48:52.784Z,67.40
2017-12-09T10:53:54.298Z,67.70
2017-12-09T10:58:56.542Z,68.00
2017-12-09T11:03:58.070Z,68.00
2017-12-09T11:08:59.573Z,68.20
2017-12-09T11:14:01.059Z,67.70
2017-12-09T11:19:03.353Z,67.90
2017-12-09T11:24:04.865Z,67.80
2017-12-09T11:29:06.382Z,68.40
2017-12-09T11:34:07.911Z,68.70
2017-12-09T11:39:09.426Z,68.40
2017-12-09T11:44:10.916Z,68.40
2017-12-09T11:49:12.422Z,69.30
2017-12-09T11:54:13.948Z,69.00
2017-12-09T11:59:15.446Z,68.50
2017-12-09T12:04:16.962Z,68.30
2017-12-09T12:09:18.465Z,68.90
2017-12-09T12:14:19.961Z,68.70
2017-12-09T12:19:21.513Z,69.00
2017-12-09T12:24:23.741Z,69.20
2017-12-09T12:29:25.973Z,69.10
2017-12-09T12:34:27.493Z,69.00
2017-12-09T12:39:29.015Z,69.00
2017-12-09T12:44:30.522Z,69.20
2017-12-09T12:49:32.037Z,69.30
2017-12-09T12:54:33.542Z,69.50
2017-12-09T12:59:35.778Z,69.50
2017-12-09T13:04:38.034Z,69.70
2017-12-09T13:09:39.517Z,69.70
2017-12-09T13:14:41.030Z,69.90
2017-12-09T13:19:43.330Z,69.90
2017-12-09T13:24:44.842Z,69.90
2017-12-09T13:29:46.370Z,70.10
2017-12-09T13:34:47.881Z,69.80
2017-12-09T13:39:50.949Z,69.90
2017-12-09T13:44:52.437Z,69.80
2017-12-09T13:49:53.945Z,69.90
2017-12-09T13:54:55.486Z,69.80
2017-12-09T13:59:56.962Z,69.70
2017-12-09T14:04:59.197Z,70.20
2017-12-09T14:10:00.709Z,70.10
2017-12-09T14:15:02.234Z,70.00
2017-12-09T14:20:04.453Z,70.10
2017-12-09T14:25:05.907Z,70.10
2017-12-09T14:30:07.337Z,69.60
2017-12-09T14:35:08.779Z,69.80
2017-12-09T14:40:10.206Z,69.10
2017-12-09T14:45:11.658Z,69.20
2017-12-09T14:50:13.082Z,68.80
2017-12-09T14:55:14.590Z,68.50
2017-12-09T15:00:16.122Z,68.00
2017-12-09T15:05:18.438Z,68.90
2017-12-09T15:20:59.881Z,68.10
2017-12-09T15:26:02.266Z,68.10
2017-12-09T15:31:04.702Z,67.80
2017-12-09T15:36:06.939Z,67.80
2017-12-09T15:41:08.838Z,67.80
2017-12-09T15:46:11.423Z,67.80
2017-12-09T15:51:12.957Z,67.80
2017-12-09T15:56:14.479Z,68.00
2017-12-09T16:01:16.044Z,67.80
2017-12-09T16:06:17.724Z,68.00
2017-12-09T16:11:20.254Z,67.60
2017-12-09T16:16:21.946Z,67.60
2017-12-09T16:21:23.498Z,67.50
2017-12-09T16:26:25.023Z,67.80
2017-12-09T16:31:26.697Z,67.70
2017-12-09T16:36:28.251Z,68.00
2017-12-09T16:41:29.770Z,67.50
2017-12-09T16:46:31.306Z,67.20
2017-12-09T16:51:32.851Z,67.00
2017-12-09T16:56:34.386Z,67.40
2017-12-09T17:01:35.994Z,67.70
2017-12-09T17:06:37.673Z,67.00
2017-12-09T17:11:39.282Z,67.20
2017-12-09T17:16:42.286Z,66.60
2017-12-09T17:21:43.850Z,66.60
2017-12-09T17:26:45.379Z,67.00
2017-12-09T17:31:46.902Z,66.30
2017-12-09T17:36:48.413Z,65.40
2017-12-09T17:41:49.942Z,66.00
2017-12-09T17:46:52.612Z,65.90
2017-12-09T17:51:58.407Z,65.20
2017-12-09T17:57:01.019Z,65.00
2017-12-09T18:02:02.589Z,65.60
2017-12-09T18:07:04.519Z,65.80
2017-12-09T18:12:06.051Z,65.60
2017-12-09T18:17:07.648Z,65.80
2017-12-09T18:22:14.489Z,66.00
2017-12-09T18:27:23.120Z,66.30
2017-12-09T18:32:31.430Z,66.50
2017-12-09T18:37:38.260Z,66.10
2017-12-09T18:42:40.791Z,66.60
2017-12-09T18:47:42.559Z,66.40
2017-12-09T18:52:44.364Z,66.70
2017-12-09T18:57:46.004Z,66.70
2017-12-09T19:02:47.579Z,66.90
2017-12-09T19:07:49.295Z,67.00
2017-12-09T19:12:50.918Z,66.90
2017-12-09T19:17:54.237Z,66.70
2017-12-09T19:22:56.870Z,66.60
2017-12-09T19:27:59.035Z,66.20
2017-12-09T19:33:01.129Z,66.40
2017-12-09T19:38:04.177Z,66.30
2017-12-09T19:43:08.150Z,66.10
2017-12-09T19:48:10.471Z,66.60
2017-12-09T19:53:12.049Z,65.90
2017-12-09T19:58:14.542Z,66.40
2017-12-09T20:03:16.201Z,65.70
2017-12-09T20:08:17.786Z,65.40
2017-12-09T20:13:19.466Z,65.80
2017-12-09T20:18:21.645Z,65.60
2017-12-09T20:23:23.515Z,65.30
2017-12-09T20:28:25.897Z,65.30
2017-12-09T20:33:27.672Z,64.90
2017-12-09T20:38:30.773Z,65.40
2017-12-09T20:43:33.183Z,65.00
2017-12-09T20:48:35.962Z,65.50
2017-12-09T20:53:38.904Z,65.50
2017-12-09T20:58:41.222Z,64.50
2017-12-09T21:03:43.239Z,64.50
2017-12-09T21:08:44.873Z,65.30
2017-12-09T21:13:46.434Z,64.90
2017-12-09T21:18:48.023Z,64.80
2017-12-09T21:23:50.630Z,65.00
2017-12-09T21:28:54.439Z,64.70
2017-12-09T21:33:56.112Z,64.60
2017-12-09T21:38:57.636Z,64.70
2017-12-09T21:43:59.809Z,65.40
2017-12-09T21:49:03.064Z,65.30
2017-12-09T21:54:05.501Z,65.30
2017-12-09T21:59:08.356Z,65.40
2017-12-09T22:04:10.599Z,65.60
2017-12-09T22:09:12.111Z,65.50
2017-12-09T22:14:13.677Z,65.80
2017-12-09T22:19:15.198Z,65.70
2017-12-09T22:24:17.881Z,66.10
2017-12-09T22:29:20.138Z,66.30
2017-12-09T22:34:21.654Z,66.30
2017-12-09T22:39:24.152Z,66.70
2017-12-09T22:44:25.680Z,66.60
2017-12-09T22:49:27.408Z,66.30
2017-12-09T22:54:29.731Z,66.20
2017-12-09T22:59:32.026Z,65.80
2017-12-09T23:04:34.415Z,65.70
2017-12-09T23:09:36.038Z,65.40
2017-12-09T23:14:39.207Z,65.50
2017-12-09T23:19:41.166Z,65.30
2017-12-09T23:24:43.366Z,65.60
2017-12-09T23:29:44.898Z,65.80
2017-12-09T23:34:46.414Z,65.40
2017-12-09T23:39:47.931Z,65.50
2017-12-09T23:44:49.825Z,65.70
2017-12-09T23:49:51.654Z,65.50
2017-12-09T23:54:53.483Z,65.80
2017-12-09T23:59:56.038Z,66.00
